Veliko Gradiste, Serbia
Current Conditions -  °F | °C
As of 11:30 PM on Wednesday 22 Oct 2014 (Local Time) from LYVR Reporting Station
Broken Clouds Broken Clouds  
Wind Chill: 45°   Ceiling: 600
Heat Index: 45°   Visibility: 5mi
Dew Point: 45°   Wind: 0mph
Humidity: 100%   Direction: NA
Pressure: 29.68"   Gusts: NA
Location:  44.76°N, 21.51°E
Report Text: LYVR 222130Z 00000KT 8000 BKN006 07/07 Q1005 NOSIG
Loading
Personal Weather Stations






























Interactive Weather Map
Tropical Storm Tracking
New forecast layout! Learn more

10-Day Weather Forecast

Advertisements
Track Severe Weather on mobile